Time,TemperatureF,DewpointF,PressureIn,WindDirection,WindDirectionDegrees,WindSpeedMPH,WindSpeedGustMPH,Humidity,HourlyPrecipIn,Conditions,Clouds,dailyrainin,SoftwareType,DateUTC
2013-05-13 00:04:00,42.0,38.0,30.20,NW,311,0.0,-999.0,84,-99.99,,,0.00,weatherlink.com 1.10,2013-05-13 04:04:00,
2013-05-13 00:19:00,41.3,37.0,30.20,NW,311,0.0,-999.0,85,-99.99,,,0.00,weatherlink.com 1.10,2013-05-13 04:19:00,
2013-05-13 00:34:00,40.9,37.0,30.21,NW,311,0.0,-999.0,87,-99.99,,,0.00,weatherlink.com 1.10,2013-05-13 04:34:00,
2013-05-13 00:49:00,40.4,37.0,30.21,NW,312,0.0,-999.0,88,-99.99,,,0.00,weatherlink.com 1.10,2013-05-13 04:49:00,
2013-05-13 01:04:00,40.0,37.0,30.21,NW,311,0.0,-999.0,88,-99.99,,,0.00,weatherlink.com 1.10,2013-05-13 05:04:00,
2013-05-13 01:19:00,39.7,37.0,30.22,NW,311,0.0,-999.0,89,-99.99,,,0.00,weatherlink.com 1.10,2013-05-13 05:19:00,
2013-05-13 01:35:00,39.3,37.0,30.22,NW,311,0.0,-999.0,90,-99.99,,,0.00,weatherlink.com 1.10,2013-05-13 05:35:00,
2013-05-13 01:50:00,39.1,37.0,30.22,NW,311,0.0,-999.0,90,-99.99,,,0.00,weatherlink.com 1.10,2013-05-13 05:50:00,
2013-05-13 02:05:00,39.0,37.0,30.21,NW,311,0.0,-999.0,91,-99.99,,,0.00,weatherlink.com 1.10,2013-05-13 06:05:00,
2013-05-13 02:20:00,38.4,36.0,30.21,NW,311,0.0,-999.0,92,-99.99,,,0.00,weatherlink.com 1.10,2013-05-13 06:20:00,
2013-05-13 02:35:00,38.0,36.0,30.21,NW,311,0.0,-999.0,92,-99.99,,,0.00,weatherlink.com 1.10,2013-05-13 06:35:00,
2013-05-13 02:50:00,37.7,36.0,30.21,NW,311,0.0,-999.0,92,-99.99,,,0.00,weatherlink.com 1.10,2013-05-13 06:50:00,
2013-05-13 03:05:00,37.5,36.0,30.21,NW,311,0.0,-999.0,93,-99.99,,,0.00,weatherlink.com 1.10,2013-05-13 07:05:00,
2013-05-13 03:20:00,37.5,36.0,30.21,NW,311,0.0,-999.0,93,-99.99,,,0.00,weatherlink.com 1.10,2013-05-13 07:20:00,
2013-05-13 03:35:00,37.2,36.0,30.22,NW,311,0.0,-999.0,94,-99.99,,,0.00,weatherlink.com 1.10,2013-05-13 07:35:00,
2013-05-13 03:50:00,36.9,35.0,30.23,NW,311,0.0,-999.0,93,-99.99,,,0.00,weatherlink.com 1.10,2013-05-13 07:50:00,
2013-05-13 04:05:00,36.9,35.0,30.23,NW,311,0.0,-999.0,93,-99.99,,,0.00,weatherlink.com 1.10,2013-05-13 08:05:00,
2013-05-13 04:20:00,36.9,35.0,30.23,NW,311,0.0,-999.0,93,-99.99,,,0.00,weatherlink.com 1.10,2013-05-13 08:20:00,
2013-05-13 04:35:00,36.8,35.0,30.24,NW,311,0.0,-999.0,93,-99.99,,,0.00,weatherlink.com 1.10,2013-05-13 08:35:00,
2013-05-13 04:50:00,36.7,35.0,30.25,NW,311,0.0,-999.0,93,-99.99,,,0.00,weatherlink.com 1.10,2013-05-13 08:50:00,
2013-05-13 05:05:00,36.4,35.0,30.25,NW,311,0.0,-999.0,93,-99.99,,,0.00,weatherlink.com 1.10,2013-05-13 09:05:00,
2013-05-13 05:20:00,36.1,34.0,30.25,NW,311,0.0,-999.0,92,-99.99,,,0.00,weatherlink.com 1.10,2013-05-13 09:20:00,
2013-05-13 05:35:00,35.7,34.0,30.26,NW,311,0.0,-999.0,92,-99.99,,,0.00,weatherlink.com 1.10,2013-05-13 09:35:00,
2013-05-13 05:50:00,35.5,33.0,30.26,NW,311,0.0,-999.0,92,-99.99,,,0.00,weatherlink.com 1.10,2013-05-13 09:50:00,
2013-05-13 06:05:00,35.2,33.0,30.27,NW,311,0.0,-999.0,93,-99.99,,,0.00,weatherlink.com 1.10,2013-05-13 10:05:00,
2013-05-13 06:20:00,35.0,33.0,30.27,NW,311,0.0,-999.0,93,-99.99,,,0.00,weatherlink.com 1.10,2013-05-13 10:20:00,
2013-05-13 06:35:00,35.0,33.0,30.27,NW,311,0.0,-999.0,93,-99.99,,,0.00,weatherlink.com 1.10,2013-05-13 10:35:00,
2013-05-13 06:50:00,35.0,33.0,30.28,NW,311,0.0,-999.0,93,-99.99,,,0.00,weatherlink.com 1.10,2013-05-13 10:50:00,
2013-05-13 07:05:00,35.0,33.0,30.29,NW,311,0.0,-999.0,93,-99.99,,,0.00,weatherlink.com 1.10,2013-05-13 11:05:00,
2013-05-13 07:20:00,35.4,34.0,30.30,NW,311,0.0,-999.0,94,-99.99,,,0.00,weatherlink.com 1.10,2013-05-13 11:20:00,
2013-05-13 07:35:00,36.0,35.0,30.30,NW,311,0.0,-999.0,95,-99.99,,,0.00,weatherlink.com 1.10,2013-05-13 11:35:00,
2013-05-13 07:50:00,36.8,36.0,30.30,NW,311,0.0,-999.0,95,-99.99,,,0.00,weatherlink.com 1.10,2013-05-13 11:50:00,
2013-05-13 08:05:00,37.7,36.0,30.30,NW,311,0.0,-999.0,95,-99.99,,,0.00,weatherlink.com 1.10,2013-05-13 12:05:00,
2013-05-13 08:20:00,38.9,38.0,30.30,NW,311,0.0,-999.0,96,-99.99,,,0.00,weatherlink.com 1.10,2013-05-13 12:20:00,
2013-05-13 08:35:00,44.0,43.0,30.31,NW,311,0.0,-999.0,96,-99.99,,,0.00,weatherlink.com 1.10,2013-05-13 12:35:00,
2013-05-13 08:51:00,49.2,41.0,30.32,NW,311,0.0,-999.0,72,-99.99,,,0.00,weatherlink.com 1.10,2013-05-13 12:51:00,
2013-05-13 09:06:00,51.6,37.0,30.32,NNW,329,0.0,-999.0,57,-99.99,,,0.00,weatherlink.com 1.10,2013-05-13 13:06:00,
2013-05-13 09:21:00,52.0,34.0,30.32,North,10,4.0,-999.0,51,-99.99,,,0.00,weatherlink.com 1.10,2013-05-13 13:21:00,
2013-05-13 09:36:00,52.5,34.0,30.32,NNW,331,6.0,-999.0,50,-99.99,,,0.00,weatherlink.com 1.10,2013-05-13 13:36:00,
2013-05-13 09:51:00,52.9,32.0,30.31,NW,304,6.0,-999.0,45,-99.99,,,0.00,weatherlink.com 1.10,2013-05-13 13:51:00,
2013-05-13 10:06:00,54.2,34.0,30.31,NW,324,5.0,-999.0,47,-99.99,,,0.00,weatherlink.com 1.10,2013-05-13 14:06:00,
2013-05-13 10:21:00,54.4,31.0,30.31,NNW,344,1.0,-999.0,41,-99.99,,,0.00,weatherlink.com 1.10,2013-05-13 14:21:00,
2013-05-13 10:36:00,55.9,33.0,30.31,NNW,334,4.0,-999.0,42,-99.99,,,0.00,weatherlink.com 1.10,2013-05-13 14:36:00,
2013-05-13 10:51:00,56.4,32.0,30.31,NNW,344,5.0,-999.0,40,-99.99,,,0.00,weatherlink.com 1.10,2013-05-13 14:51:00,
2013-05-13 11:06:00,57.5,32.0,30.31,ENE,57,1.0,-999.0,38,-99.99,,,0.00,weatherlink.com 1.10,2013-05-13 15:06:00,
2013-05-13 11:21:00,57.6,34.0,30.31,West,275,0.0,-999.0,41,-99.99,,,0.00,weatherlink.com 1.10,2013-05-13 15:21:00,
2013-05-13 11:36:00,59.1,30.0,30.31,NNW,339,6.0,-999.0,33,-99.99,,,0.00,weatherlink.com 1.10,2013-05-13 15:36:00,
2013-05-13 11:51:00,59.3,31.0,30.30,NNW,346,7.0,-999.0,35,-99.99,,,0.00,weatherlink.com 1.10,2013-05-13 15:51:00,
2013-05-13 12:06:00,59.3,29.0,30.30,NNW,336,10.0,-999.0,32,-99.99,,,0.00,weatherlink.com 1.10,2013-05-13 16:06:00,
2013-05-13 12:21:00,59.9,31.0,30.29,NW,314,6.0,-999.0,34,-99.99,,,0.00,weatherlink.com 1.10,2013-05-13 16:21:00,
2013-05-13 12:36:00,60.6,30.0,30.30,WNW,303,9.0,-999.0,32,-99.99,,,0.00,weatherlink.com 1.10,2013-05-13 16:36:00,
2013-05-13 12:51:00,60.8,29.0,30.28,NW,319,6.0,-999.0,30,-99.99,,,0.00,weatherlink.com 1.10,2013-05-13 16:51:00,
2013-05-13 13:06:00,61.6,33.0,30.28,NNW,348,9.0,-999.0,34,-99.99,,,0.00,weatherlink.com 1.10,2013-05-13 17:06:00,
2013-05-13 13:21:00,60.6,31.0,30.28,North,355,5.0,-999.0,33,-99.99,,,0.00,weatherlink.com 1.10,2013-05-13 17:21:00,
2013-05-13 13:36:00,61.1,36.0,30.27,NW,317,5.0,-999.0,39,-99.99,,,0.00,weatherlink.com 1.10,2013-05-13 17:36:00,
2013-05-13 13:52:00,62.2,33.0,30.26,NW,326,6.0,-999.0,34,-99.99,,,0.00,weatherlink.com 1.10,2013-05-13 17:52:00,
2013-05-13 14:07:00,62.6,29.0,30.26,NNW,346,7.0,-999.0,28,-99.99,,,0.00,weatherlink.com 1.10,2013-05-13 18:07:00,
2013-05-13 14:22:00,61.3,28.0,30.25,NNW,348,12.0,-999.0,28,-99.99,,,0.00,weatherlink.com 1.10,2013-05-13 18:22:00,
2013-05-13 14:37:00,61.6,30.0,30.24,NNW,329,0.0,-999.0,30,-99.99,,,0.00,weatherlink.com 1.10,2013-05-13 18:37:00,
2013-05-13 14:52:00,61.2,29.0,30.24,NNE,23,3.0,-999.0,29,-99.99,,,0.00,weatherlink.com 1.10,2013-05-13 18:52:00,
2013-05-13 15:07:00,63.1,29.0,30.23,West,267,7.0,-999.0,28,-99.99,,,0.00,weatherlink.com 1.10,2013-05-13 19:07:00,
2013-05-13 15:22:00,62.7,30.0,30.24,NNW,340,10.0,-999.0,29,-99.99,,,0.00,weatherlink.com 1.10,2013-05-13 19:22:00,
2013-05-13 15:37:00,63.8,32.0,30.22,West,279,4.0,-999.0,30,-99.99,,,0.00,weatherlink.com 1.10,2013-05-13 19:37:00,
2013-05-13 15:52:00,63.1,30.0,30.22,NNW,338,0.0,-999.0,29,-99.99,,,0.00,weatherlink.com 1.10,2013-05-13 19:52:00,
2013-05-13 16:07:00,64.1,29.0,30.21,WNW,288,6.0,-999.0,27,-99.99,,,0.00,weatherlink.com 1.10,2013-05-13 20:07:00,
2013-05-13 16:22:00,64.1,28.0,30.21,NNW,346,6.0,-999.0,26,-99.99,,,0.00,weatherlink.com 1.10,2013-05-13 20:22:00,
2013-05-13 16:37:00,64.7,30.0,30.21,NNW,339,8.0,-999.0,27,-99.99,,,0.00,weatherlink.com 1.10,2013-05-13 20:37:00,
2013-05-13 16:52:00,63.6,28.0,30.21,NNW,332,6.0,-999.0,26,-99.99,,,0.00,weatherlink.com 1.10,2013-05-13 20:52:00,
2013-05-13 17:07:00,63.7,28.0,30.21,NNW,333,8.0,-999.0,26,-99.99,,,0.00,weatherlink.com 1.10,2013-05-13 21:07:00,
2013-05-13 17:22:00,64.3,29.0,30.21,NNW,343,6.0,-999.0,27,-99.99,,,0.00,weatherlink.com 1.10,2013-05-13 21:22:00,
2013-05-13 17:37:00,63.2,28.0,30.21,NNW,341,8.0,-999.0,26,-99.99,,,0.00,weatherlink.com 1.10,2013-05-13 21:37:00,
2013-05-13 17:52:00,63.1,28.0,30.21,NNW,346,5.0,-999.0,27,-99.99,,,0.00,weatherlink.com 1.10,2013-05-13 21:52:00,
2013-05-13 18:07:00,62.7,28.0,30.20,NNW,342,9.0,-999.0,27,-99.99,,,0.00,weatherlink.com 1.10,2013-05-13 22:07:00,
2013-05-13 18:22:00,62.5,27.0,30.21,North,351,8.0,-999.0,26,-99.99,,,0.00,weatherlink.com 1.10,2013-05-13 22:22:00,
2013-05-13 18:37:00,62.0,26.0,30.21,NW,306,5.0,-999.0,25,-99.99,,,0.00,weatherlink.com 1.10,2013-05-13 22:37:00,
2013-05-13 18:52:00,61.9,26.0,30.20,NNW,346,4.0,-999.0,26,-99.99,,,0.00,weatherlink.com 1.10,2013-05-13 22:52:00,
2013-05-13 19:07:00,61.3,28.0,30.21,NNW,344,7.0,-999.0,28,-99.99,,,0.00,weatherlink.com 1.10,2013-05-13 23:07:00,
2013-05-13 19:22:00,60.5,28.0,30.21,NNW,344,4.0,-999.0,29,-99.99,,,0.00,weatherlink.com 1.10,2013-05-13 23:22:00,
2013-05-13 19:37:00,59.6,27.0,30.22,NNW,337,0.0,-999.0,29,-99.99,,,0.00,weatherlink.com 1.10,2013-05-13 23:37:00,
2013-05-13 19:52:00,58.9,28.0,30.23,NE,55,0.0,-999.0,31,-99.99,,,0.00,weatherlink.com 1.10,2013-05-13 23:52:00,
2013-05-13 20:07:00,58.5,29.0,30.24,NNW,338,0.0,-999.0,32,-99.99,,,0.00,weatherlink.com 1.10,2013-05-14 00:07:00,
2013-05-13 20:22:00,55.3,31.0,30.24,NNW,338,0.0,-999.0,40,-99.99,,,0.00,weatherlink.com 1.10,2013-05-14 00:22:00,
2013-05-13 20:37:00,53.1,33.0,30.25,NNW,338,0.0,-999.0,46,-99.99,,,0.00,weatherlink.com 1.10,2013-05-14 00:37:00,
2013-05-13 20:52:00,51.2,35.0,30.27,NNW,338,0.0,-999.0,55,-99.99,,,0.00,weatherlink.com 1.10,2013-05-14 00:52:00,
2013-05-13 21:07:00,49.5,34.0,30.27,NNW,338,0.0,-999.0,55,-99.99,,,0.00,weatherlink.com 1.10,2013-05-14 01:07:00,
2013-05-13 21:22:00,47.8,34.0,30.28,NNW,338,0.0,-999.0,59,-99.99,,,0.00,weatherlink.com 1.10,2013-05-14 01:22:00,
2013-05-13 21:37:00,47.1,37.0,30.29,NNW,338,0.0,-999.0,67,-99.99,,,0.00,weatherlink.com 1.10,2013-05-14 01:37:00,
2013-05-13 21:52:00,46.2,37.0,30.30,NNW,338,0.0,-999.0,71,-99.99,,,0.00,weatherlink.com 1.10,2013-05-14 01:52:00,
2013-05-13 22:07:00,45.3,36.0,30.32,NNW,338,0.0,-999.0,69,-99.99,,,0.00,weatherlink.com 1.10,2013-05-14 02:07:00,
2013-05-13 22:22:00,44.5,37.0,30.32,NNW,338,0.0,-999.0,74,-99.99,,,0.00,weatherlink.com 1.10,2013-05-14 02:22:00,
2013-05-13 22:37:00,43.8,38.0,30.32,NNW,338,0.0,-999.0,79,-99.99,,,0.00,weatherlink.com 1.10,2013-05-14 02:37:00,
2013-05-13 22:52:00,43.6,37.0,30.33,NNW,338,0.0,-999.0,76,-99.99,,,0.00,weatherlink.com 1.10,2013-05-14 02:52:00,
2013-05-13 23:07:00,43.3,37.0,30.34,NNW,338,0.0,-999.0,78,-99.99,,,0.00,weatherlink.com 1.10,2013-05-14 03:07:00,
2013-05-13 23:22:00,42.9,36.0,30.34,NNW,338,0.0,-999.0,78,-99.99,,,0.00,weatherlink.com 1.10,2013-05-14 03:22:00,
2013-05-13 23:37:00,42.5,36.0,30.34,NNW,338,0.0,-999.0,79,-99.99,,,0.00,weatherlink.com 1.10,2013-05-14 03:37:00,
2013-05-13 23:52:00,42.1,36.0,30.34,NNW,338,0.0,-999.0,79,-99.99,,,0.00,weatherlink.com 1.10,2013-05-14 03:52:00,